Terminal Aerodrome Forecast
Issued by NWS Duluth, MN

Home | Current Version | Previous Version | Text Only | Print | Product List | Glossary On
Versions: 1 2 3 4 5 6 7 8 9 10 11 12 13 14 15 16 17 18 19 20 21 22 23
000
FTUS43 KDLH 191700
TAFINL
TAF
KINL 191737Z 1918/2018 29009KT P6SM SKC
     FM192000 30010G17KT P6SM SKC
     FM200100 31007KT P6SM SCT023 BKN040
     FM200500 32008KT P6SM BKN018
      TEMPO 2008/2012 2SM BR OVC009
     FM201600 35006KT P6SM SCT025=

USA.gov is the U.S. government's official web portal to all federal, state and local government web resources and services.